HAF212 LGEL-LGML

Flight info

Callsign HAF212
Flight time 0h 40m
Altitude 2500
Route DIRECT FLIGHT
Aircraft CL41/M-GPS/C

Departure

Time 2026-04-19 10:35
Airport Elefsis Air Base (LGEL)

Arrival

Time 2026-04-19 11:15
Airport Milos Airport (LGML)
Time Latitude Longitude Altitude Speed Heading
2026-04-19 10:27 38.06937 23.55104 114 ft 0 kts 83°
2026-04-19 10:32 38.06938 23.55114 115 ft 11 kts 81°
2026-04-19 10:32 38.07029 23.55149 119 ft 5 kts 352°
2026-04-19 10:32 38.07107 23.55134 120 ft 18 kts 352°
2026-04-19 10:33 38.07305 23.55140 132 ft 27 kts 15°
2026-04-19 10:33 38.07453 23.55286 138 ft 22 kts 63°
2026-04-19 10:33 38.07403 23.55358 135 ft 12 kts 179°
2026-04-19 10:33 38.07340 23.55358 133 ft 38 kts 180°
2026-04-19 10:34 38.06866 23.55359 111 ft 90 kts 182°
2026-04-19 10:34 38.06172 23.55459 202 ft 110 kts 174°
2026-04-19 10:34 38.05374 23.55661 364 ft 122 kts 168°
2026-04-19 10:34 38.04556 23.55872 678 ft 115 kts 173°
2026-04-19 10:35 38.03746 23.56027 917 ft 121 kts 172°
2026-04-19 10:35 38.02874 23.56150 1132 ft 128 kts 179°
2026-04-19 10:35 38.01974 23.56120 1416 ft 129 kts 180°
2026-04-19 10:35 38.01079 23.56177 1734 ft 129 kts 175°
2026-04-19 10:36 38.00216 23.56366 2072 ft 125 kts 156°
2026-04-19 10:36 37.99439 23.56909 2370 ft 131 kts 146°
2026-04-19 10:36 37.98666 23.57582 2565 ft 136 kts 141°
2026-04-19 10:36 37.97883 23.58304 2634 ft 146 kts 144°
2026-04-19 10:37 37.97036 23.59093 2666 ft 154 kts 143°
2026-04-19 10:37 37.96197 23.59907 2734 ft 153 kts 140°
2026-04-19 10:37 37.95346 23.60702 2810 ft 153 kts 143°
2026-04-19 10:37 37.94491 23.61509 2875 ft 153 kts 142°
2026-04-19 10:38 37.93647 23.62363 2860 ft 158 kts 141°
2026-04-19 10:38 37.92767 23.63191 2910 ft 158 kts 140°
2026-04-19 10:38 37.91896 23.64034 2923 ft 160 kts 148°
2026-04-19 10:38 37.90905 23.64646 3015 ft 157 kts 152°
2026-04-19 10:39 37.89923 23.65333 2939 ft 162 kts 147°
2026-04-19 10:39 37.88973 23.66077 2951 ft 161 kts 148°
2026-04-19 10:39 37.88044 23.66763 3165 ft 141 kts 148°
2026-04-19 10:39 37.87196 23.67371 3108 ft 138 kts 150°
2026-04-19 10:40 37.86418 23.67984 3178 ft 131 kts 140°
2026-04-19 10:40 37.85734 23.68768 3079 ft 135 kts 136°
2026-04-19 10:40 37.85029 23.69528 3120 ft 131 kts 140°
2026-04-19 10:40 37.84316 23.70253 3091 ft 133 kts 136°
2026-04-19 10:41 37.83582 23.70999 3041 ft 136 kts 145°
2026-04-19 10:41 37.82779 23.71607 2961 ft 139 kts 150°
2026-04-19 10:41 37.81898 23.72119 2913 ft 138 kts 154°
2026-04-19 10:41 37.81029 23.72632 2898 ft 137 kts 152°
2026-04-19 10:42 37.80175 23.73166 2889 ft 135 kts 149°
2026-04-19 10:42 37.79337 23.73716 2862 ft 137 kts 152°
2026-04-19 10:42 37.78512 23.74315 2876 ft 135 kts 143°
2026-04-19 10:42 37.77794 23.75073 2868 ft 135 kts 136°
2026-04-19 10:43 37.77038 23.75787 2804 ft 139 kts 144°
2026-04-19 10:43 37.76164 23.76335 2787 ft 137 kts 152°
2026-04-19 10:43 37.75239 23.76676 2756 ft 140 kts 158°
2026-04-19 10:43 37.74372 23.77178 2704 ft 136 kts 140°
2026-04-19 10:44 37.73605 23.77838 2684 ft 135 kts 141°
2026-04-19 10:44 37.72741 23.78354 2630 ft 137 kts 147°
2026-04-19 10:44 37.71906 23.78908 2644 ft 135 kts 142°
2026-04-19 10:44 37.71300 23.79354 2658 ft 135 kts 143°
2026-04-19 10:45 37.70686 23.79837 2642 ft 137 kts 142°
2026-04-19 10:45 37.69840 23.80403 2653 ft 137 kts 143°
2026-04-19 10:46 37.69030 23.81018 2651 ft 136 kts 144°
2026-04-19 10:46 37.68227 23.81632 2669 ft 134 kts 140°
2026-04-19 10:46 37.67436 23.82267 2664 ft 136 kts 143°
2026-04-19 10:46 37.66580 23.82774 2668 ft 137 kts 153°
2026-04-19 10:47 37.65705 23.83225 2670 ft 135 kts 149°
2026-04-19 10:47 37.64837 23.83669 2649 ft 137 kts 154°
2026-04-19 10:47 37.63935 23.84058 2639 ft 137 kts 154°
2026-04-19 10:47 37.63041 23.84484 2628 ft 137 kts 153°
2026-04-19 10:48 37.62166 23.84949 2626 ft 136 kts 149°
2026-04-19 10:48 37.61279 23.85393 2609 ft 136 kts 149°
2026-04-19 10:48 37.60461 23.85945 2617 ft 132 kts 139°
2026-04-19 10:48 37.59684 23.86580 2582 ft 133 kts 136°
2026-04-19 10:49 37.58958 23.87286 2583 ft 132 kts 141°
2026-04-19 10:49 37.58093 23.87707 2593 ft 134 kts 155°
2026-04-19 10:49 37.57248 23.88118 2694 ft 128 kts 153°
2026-04-19 10:49 37.56422 23.88553 2750 ft 129 kts 152°
2026-04-19 10:50 37.55586 23.88952 2821 ft 131 kts 154°
2026-04-19 10:50 37.54728 23.89365 2868 ft 133 kts 150°
2026-04-19 10:50 37.53889 23.89850 2928 ft 133 kts 148°
2026-04-19 10:50 37.53043 23.90397 2876 ft 139 kts 147°
2026-04-19 10:51 37.52150 23.90860 2947 ft 139 kts 156°
2026-04-19 10:51 37.51218 23.91275 2915 ft 142 kts 151°
2026-04-19 10:51 37.50349 23.91825 2963 ft 138 kts 141°
2026-04-19 10:51 37.49557 23.92512 2968 ft 138 kts 137°
2026-04-19 10:52 37.48743 23.93143 3004 ft 139 kts 143°
2026-04-19 10:52 37.47926 23.93791 3008 ft 138 kts 137°
2026-04-19 10:52 37.47027 23.94293 2964 ft 147 kts 165°
2026-04-19 10:52 37.46047 23.94518 3053 ft 140 kts 158°
2026-04-19 10:53 37.45159 23.95036 3005 ft 141 kts 146°
2026-04-19 10:53 37.44332 23.95626 3071 ft 137 kts 142°
2026-04-19 10:53 37.43473 23.96210 2987 ft 147 kts 157°
2026-04-19 10:53 37.42441 23.96404 2920 ft 152 kts 175°
2026-04-19 10:54 37.41423 23.96670 2799 ft 149 kts 147°
2026-04-19 10:54 37.40606 23.97394 2757 ft 145 kts 137°
2026-04-19 10:54 37.40369 23.97611 2684 ft 147 kts 138°
2026-04-19 10:55 37.40121 23.97839 2565 ft 152 kts 135°
2026-04-19 10:55 37.39366 23.98655 2682 ft 135 kts 132°
2026-04-19 10:55 37.38573 23.99299 2707 ft 138 kts 146°
2026-04-19 10:55 37.37727 23.99871 2722 ft 137 kts 146°
2026-04-19 10:56 37.36878 24.00427 2753 ft 139 kts 149°
2026-04-19 10:56 37.35987 24.00929 2752 ft 149 kts 148°
2026-04-19 10:56 37.35003 24.01415 2800 ft 157 kts 157°
2026-04-19 10:56 37.33943 24.01832 2861 ft 164 kts 158°
2026-04-19 10:57 37.32861 24.02338 2938 ft 164 kts 154°
2026-04-19 10:57 37.31821 24.02899 3001 ft 163 kts 154°
2026-04-19 10:57 37.30768 24.03395 3085 ft 161 kts 155°
2026-04-19 10:57 37.29718 24.03916 3110 ft 163 kts 153°
2026-04-19 10:58 37.28669 24.04465 3142 ft 164 kts 153°
2026-04-19 10:58 37.27574 24.05017 2923 ft 177 kts 155°
2026-04-19 10:58 37.26422 24.05609 2814 ft 178 kts 152°
2026-04-19 10:58 37.25296 24.06227 2823 ft 173 kts 151°
2026-04-19 10:59 37.24176 24.06761 2822 ft 172 kts 156°
2026-04-19 10:59 37.23069 24.07283 2853 ft 170 kts 153°
2026-04-19 10:59 37.22727 24.07445 2873 ft 169 kts 153°
2026-04-19 11:00 37.21958 24.07818 2825 ft 172 kts 152°
2026-04-19 11:00 37.20848 24.08366 2869 ft 169 kts 154°
2026-04-19 11:00 37.19741 24.08840 2867 ft 170 kts 153°
2026-04-19 11:01 37.18656 24.09408 2902 ft 167 kts 150°
2026-04-19 11:01 37.17596 24.09977 2978 ft 165 kts 153°
2026-04-19 11:01 37.16511 24.10530 2886 ft 173 kts 149°
2026-04-19 11:01 37.15411 24.11181 2819 ft 175 kts 149°
2026-04-19 11:02 37.14328 24.11855 2863 ft 169 kts 145°
2026-04-19 11:02 37.13396 24.12619 3080 ft 155 kts 134°
2026-04-19 11:02 37.12460 24.13359 3106 ft 161 kts 143°
2026-04-19 11:02 37.11489 24.14045 3147 ft 163 kts 141°
2026-04-19 11:03 37.10506 24.14750 3192 ft 164 kts 147°
2026-04-19 11:03 37.09471 24.15387 3213 ft 167 kts 149°
2026-04-19 11:03 37.08414 24.16009 3244 ft 168 kts 148°
2026-04-19 11:03 37.07354 24.16648 3231 ft 170 kts 147°
2026-04-19 11:04 37.06279 24.17297 3229 ft 172 kts 151°
2026-04-19 11:04 37.05158 24.17872 3191 ft 174 kts 154°
2026-04-19 11:04 37.04072 24.18446 3319 ft 166 kts 151°
2026-04-19 11:04 37.02914 24.18935 3102 ft 183 kts 157°
2026-04-19 11:05 37.01729 24.19483 2997 ft 181 kts 152°
2026-04-19 11:05 37.00589 24.20061 2981 ft 176 kts 151°
2026-04-19 11:05 36.99475 24.20644 2987 ft 172 kts 150°
2026-04-19 11:05 36.98375 24.21192 3015 ft 169 kts 152°
2026-04-19 11:06 36.97263 24.21667 2998 ft 170 kts 156°
2026-04-19 11:06 36.96128 24.22030 3059 ft 168 kts 164°
2026-04-19 11:06 36.94988 24.22371 3053 ft 169 kts 159°
2026-04-19 11:06 36.93877 24.22781 3080 ft 167 kts 156°
2026-04-19 11:07 36.92798 24.23341 2991 ft 171 kts 148°
2026-04-19 11:07 36.91837 24.24101 3016 ft 161 kts 127°
2026-04-19 11:07 36.91015 24.25082 2898 ft 165 kts 129°
2026-04-19 11:07 36.90146 24.26063 2827 ft 166 kts 131°
2026-04-19 11:08 36.89259 24.26962 2804 ft 169 kts 138°
2026-04-19 11:08 36.88264 24.27776 2720 ft 172 kts 140°
2026-04-19 11:08 36.87270 24.28635 2591 ft 174 kts 135°
2026-04-19 11:08 36.86342 24.29503 2722 ft 162 kts 136°
2026-04-19 11:09 36.85469 24.30366 2735 ft 161 kts 132°
2026-04-19 11:09 36.84672 24.31222 2776 ft 140 kts 129°
2026-04-19 11:09 36.84209 24.31735 2665 ft 141 kts 128°
2026-04-19 11:10 36.83534 24.32502 2401 ft 151 kts 129°
2026-04-19 11:10 36.82693 24.33370 2178 ft 157 kts 131°
2026-04-19 11:10 36.81830 24.34178 2015 ft 159 kts 139°
2026-04-19 11:10 36.80893 24.34902 1884 ft 157 kts 140°
2026-04-19 11:11 36.79971 24.35596 1807 ft 153 kts 141°
2026-04-19 11:11 36.79147 24.36400 1644 ft 149 kts 118°
2026-04-19 11:11 36.78571 24.37470 1448 ft 149 kts 109°
2026-04-19 11:11 36.77988 24.38539 1307 ft 151 kts 122°
2026-04-19 11:12 36.77248 24.39500 1137 ft 155 kts 124°
2026-04-19 11:12 36.76513 24.40497 968 ft 157 kts 123°
2026-04-19 11:12 36.75745 24.41479 883 ft 159 kts 127°
2026-04-19 11:12 36.75035 24.42369 955 ft 126 kts 125°
2026-04-19 11:13 36.74392 24.43013 754 ft 121 kts 134°
2026-04-19 11:13 36.73721 24.43675 777 ft 125 kts 130°
2026-04-19 11:13 36.73033 24.44349 839 ft 128 kts 133°
2026-04-19 11:13 36.72422 24.45124 682 ft 125 kts 112°
2026-04-19 11:14 36.71964 24.46036 487 ft 121 kts 112°
2026-04-19 11:14 36.71517 24.46901 396 ft 120 kts 126°
2026-04-19 11:14 36.70801 24.47093 420 ft 103 kts 232°
2026-04-19 11:14 36.70512 24.46233 373 ft 119 kts 213°
2026-04-19 11:15 36.69793 24.46389 317 ft 128 kts 120°
2026-04-19 11:15 36.69640 24.47186 42 ft 92 kts 75°
2026-04-19 11:15 36.69703 24.47823 16 ft 46 kts 81°
2026-04-19 11:15 36.69720 24.47973 16 ft 24 kts 80°